createdAt,value
2022-12-31T00:01:57.328Z,129.80
2022-12-31T00:12:02.242Z,123.63
2022-12-31T00:22:05.877Z,133.77
2022-12-31T00:32:10.691Z,123.97
2022-12-31T00:42:14.124Z,126.47
2022-12-31T00:52:18.983Z,128.33
2022-12-31T01:02:22.531Z,126.70
2022-12-31T01:12:27.645Z,119.40
2022-12-31T01:22:31.175Z,129.03
2022-12-31T01:32:35.990Z,119.07
2022-12-31T01:42:40.898Z,126.07
2022-12-31T01:52:49.124Z,123.73
2022-12-31T02:02:53.001Z,116.90
2022-12-31T02:12:58.107Z,118.53
2022-12-31T02:23:28.298Z,121.37
2022-12-31T02:33:39.637Z,121.67
2022-12-31T02:43:47.939Z,115.50
2022-12-31T02:54:30.218Z,116.77
2022-12-31T03:04:36.310Z,123.07
2022-12-31T03:14:41.366Z,121.23
2022-12-31T03:25:02.361Z,124.17
2022-12-31T03:35:10.265Z,124.10
2022-12-31T03:45:14.143Z,123.37
2022-12-31T03:55:19.316Z,124.30
2022-12-31T04:05:24.048Z,126.37
2022-12-31T04:15:28.886Z,125.77
2022-12-31T04:25:32.434Z,126.57
2022-12-31T04:35:37.277Z,128.13
2022-12-31T04:45:40.811Z,137.27
2022-12-31T04:55:47.042Z,148.40
2022-12-31T05:05:50.662Z,149.83
2022-12-31T05:15:55.601Z,141.80
2022-12-31T05:26:00.275Z,133.73
2022-12-31T05:36:05.908Z,116.37
2022-12-31T05:46:10.071Z,113.20
2022-12-31T05:56:14.978Z,109.40
2022-12-31T06:06:18.412Z,106.57
2022-12-31T06:16:23.312Z,104.37
2022-12-31T06:26:27.299Z,107.63
2022-12-31T06:36:32.126Z,106.70
2022-12-31T06:46:36.064Z,107.83
2022-12-31T06:56:42.654Z,103.37
2022-12-31T07:06:53.439Z,95.63
2022-12-31T07:17:07.457Z,86.73
2022-12-31T07:27:29.228Z,86.97
2022-12-31T07:37:43.844Z,88.07
2022-12-31T07:47:48.187Z,91.47
2022-12-31T07:58:00.603Z,88.30
2022-12-31T08:08:19.692Z,86.13
2022-12-31T08:18:25.156Z,91.57
2022-12-31T08:28:47.990Z,86.80
2022-12-31T08:39:04.330Z,94.13
2022-12-31T08:49:11.440Z,88.87
2022-12-31T08:59:31.362Z,92.63
2022-12-31T09:09:48.643Z,95.67
2022-12-31T09:19:54.750Z,96.70
2022-12-31T09:30:05.389Z,94.40
2022-12-31T09:40:42.968Z,94.13
2022-12-31T09:51:03.967Z,94.23
2022-12-31T10:01:24.452Z,90.47
2022-12-31T10:11:48.256Z,104.40
2022-12-31T10:22:12.313Z,101.13
2022-12-31T10:32:27.801Z,103.80
2022-12-31T10:43:48.928Z,104.40
2022-12-31T10:54:51.517Z,98.57
2022-12-31T11:05:51.244Z,102.07
2022-12-31T11:16:21.509Z,97.93
2022-12-31T11:26:40.412Z,101.07
2022-12-31T11:36:57.666Z,102.87
2022-12-31T11:47:24.815Z,95.60
2022-12-31T11:57:35.971Z,102.13
2022-12-31T12:07:40.817Z,96.33
2022-12-31T12:17:44.423Z,99.60
2022-12-31T12:27:49.614Z,102.87
2022-12-31T12:38:01.981Z,112.20
2022-12-31T12:48:16.737Z,93.80
2022-12-31T12:58:38.173Z,103.83
2022-12-31T13:09:03.581Z,100.73
2022-12-31T13:19:15.794Z,99.47
2022-12-31T13:29:24.070Z,98.93
2022-12-31T13:39:31.483Z,99.17
2022-12-31T13:49:43.838Z,90.57
2022-12-31T13:59:51.493Z,94.50
2022-12-31T14:09:56.503Z,92.23
2022-12-31T14:20:14.976Z,94.23
2022-12-31T14:30:22.646Z,90.47
2022-12-31T14:40:32.135Z,94.33
2022-12-31T14:50:37.895Z,93.43
2022-12-31T15:00:53.688Z,95.57
2022-12-31T15:11:33.310Z,98.00
2022-12-31T15:21:54.126Z,95.63
2022-12-31T15:32:01.322Z,91.97
2022-12-31T15:42:37.315Z,92.53
2022-12-31T15:52:40.494Z,96.93
2022-12-31T16:02:44.729Z,100.00
2022-12-31T16:12:50.858Z,92.17
2022-12-31T16:22:58.526Z,98.40
2022-12-31T16:33:07.284Z,99.53
2022-12-31T16:43:27.941Z,94.77
2022-12-31T16:53:36.268Z,96.03
2022-12-31T17:03:43.975Z,97.03
2022-12-31T17:13:56.130Z,91.23
2022-12-31T17:24:04.679Z,94.03
2022-12-31T17:34:23.920Z,97.10
2022-12-31T17:44:29.658Z,98.30
2022-12-31T17:54:34.475Z,94.13
2022-12-31T18:04:37.958Z,104.37
2022-12-31T18:14:44.126Z,100.13
2022-12-31T18:24:49.733Z,98.33
2022-12-31T18:34:54.591Z,97.27
2022-12-31T18:44:58.118Z,99.97
2022-12-31T18:55:03.042Z,95.40
2022-12-31T19:05:23.241Z,100.77
2022-12-31T19:15:33.032Z,93.70
2022-12-31T19:25:37.576Z,95.13
2022-12-31T19:35:42.695Z,98.40
2022-12-31T19:45:47.625Z,93.93
2022-12-31T19:55:53.963Z,99.33
2022-12-31T20:06:05.296Z,100.13
2022-12-31T20:16:13.440Z,94.70
2022-12-31T20:26:17.571Z,90.20
2022-12-31T20:36:23.001Z,92.67
2022-12-31T20:46:28.673Z,97.23
2022-12-31T20:56:36.757Z,94.20
2022-12-31T21:06:40.244Z,93.73
2022-12-31T21:16:45.161Z,92.30
2022-12-31T21:26:48.607Z,94.97
2022-12-31T21:36:53.473Z,95.23
2022-12-31T21:47:41.037Z,93.63
2022-12-31T21:58:24.147Z,96.00
2022-12-31T22:08:10.384Z,97.33
2022-12-31T22:18:17.021Z,96.40
2022-12-31T22:28:39.046Z,99.20
2022-12-31T22:38:45.184Z,95.57
2022-12-31T22:48:49.740Z,96.20
2022-12-31T22:58:54.615Z,93.03
2022-12-31T23:09:15.637Z,95.77
2022-12-31T23:19:37.895Z,109.63
2022-12-31T23:29:47.046Z,114.50
2022-12-31T23:39:52.464Z,110.43
2022-12-31T23:49:55.889Z,104.47
